sensor_id;sensor_type;location;lat;lon;timestamp;pressure;altitude;pressure_sealevel;temperature;humidity
17764;BME280;22245;52.832;13.816;2023-08-06T00:00:33;100646.81;;;18.39;80.96
17764;BME280;22245;52.832;13.816;2023-08-06T00:03:55;100652.56;;;18.35;81.87
17764;BME280;22245;52.832;13.816;2023-08-06T00:07:17;100648.38;;;18.33;81.95
17764;BME280;22245;52.832;13.816;2023-08-06T00:10:40;100644.00;;;18.32;82.22
17764;BME280;22245;52.832;13.816;2023-08-06T00:14:02;100649.59;;;18.30;82.49
17764;BME280;22245;52.832;13.816;2023-08-06T00:17:23;100645.41;;;18.28;82.83
17764;BME280;22245;52.832;13.816;2023-08-06T00:20:45;100654.72;;;18.25;82.48
17764;BME280;22245;52.832;13.816;2023-08-06T00:24:07;100653.88;;;18.25;82.86
17764;BME280;22245;52.832;13.816;2023-08-06T00:27:30;100650.50;;;18.22;82.91
17764;BME280;22245;52.832;13.816;2023-08-06T00:30:53;100644.47;;;18.20;83.32
17764;BME280;22245;52.832;13.816;2023-08-06T00:34:15;100637.78;;;18.16;83.92
17764;BME280;22245;52.832;13.816;2023-08-06T00:37:37;100628.19;;;18.14;84.12
17764;BME280;22245;52.832;13.816;2023-08-06T00:40:58;100630.22;;;18.12;84.00
17764;BME280;22245;52.832;13.816;2023-08-06T00:44:21;100622.53;;;18.08;84.07
17764;BME280;22245;52.832;13.816;2023-08-06T00:47:43;100626.59;;;18.04;84.23
17764;BME280;22245;52.832;13.816;2023-08-06T00:51:06;100622.22;;;18.03;84.13
17764;BME280;22245;52.832;13.816;2023-08-06T00:54:29;100617.88;;;18.02;84.31
17764;BME280;22245;52.832;13.816;2023-08-06T00:57:50;100625.28;;;18.00;85.16
17764;BME280;22245;52.832;13.816;2023-08-06T01:01:14;100620.91;;;17.99;85.01
17764;BME280;22245;52.832;13.816;2023-08-06T01:04:36;100618.22;;;17.99;85.88
17764;BME280;22245;52.832;13.816;2023-08-06T01:08:11;100614.66;;;17.99;85.67
17764;BME280;22245;52.832;13.816;2023-08-06T01:11:42;100619.22;;;17.98;85.30
17764;BME280;22245;52.832;13.816;2023-08-06T01:15:08;100618.56;;;17.96;85.23
17764;BME280;22245;52.832;13.816;2023-08-06T01:18:34;100620.63;;;17.94;85.76
17764;BME280;22245;52.832;13.816;2023-08-06T01:21:59;100616.63;;;17.90;86.59
17764;BME280;22245;52.832;13.816;2023-08-06T01:25:22;100621.16;;;17.89;86.82
17764;BME280;22245;52.832;13.816;2023-08-06T01:28:56;100616.13;;;17.86;87.48
17764;BME280;22245;52.832;13.816;2023-08-06T01:32:21;100615.31;;;17.86;87.52
17764;BME280;22245;52.832;13.816;2023-08-06T01:35:44;100611.59;;;17.87;87.40
17764;BME280;22245;52.832;13.816;2023-08-06T01:39:07;100609.56;;;17.89;87.92
17764;BME280;22245;52.832;13.816;2023-08-06T01:42:28;100612.41;;;17.87;88.48
17764;BME280;22245;52.832;13.816;2023-08-06T01:45:50;100604.34;;;17.87;87.89
17764;BME280;22245;52.832;13.816;2023-08-06T01:49:11;100595.22;;;17.88;87.55
17764;BME280;22245;52.832;13.816;2023-08-06T01:52:33;100593.38;;;17.89;87.41
17764;BME280;22245;52.832;13.816;2023-08-06T01:55:56;100598.78;;;17.89;87.36
17764;BME280;22245;52.832;13.816;2023-08-06T01:59:18;100589.69;;;17.90;87.92
17764;BME280;22245;52.832;13.816;2023-08-06T02:02:39;100581.75;;;17.88;87.99
17764;BME280;22245;52.832;13.816;2023-08-06T02:06:03;100574.69;;;17.87;88.38
17764;BME280;22245;52.832;13.816;2023-08-06T02:09:24;100562.63;;;17.83;88.43
17764;BME280;22245;52.832;13.816;2023-08-06T02:12:47;100556.41;;;17.83;88.33
17764;BME280;22245;52.832;13.816;2023-08-06T02:16:09;100548.50;;;17.81;88.98
17764;BME280;22245;52.832;13.816;2023-08-06T02:19:31;100551.56;;;17.78;88.86
17764;BME280;22245;52.832;13.816;2023-08-06T02:22:52;100555.06;;;17.78;88.82
17764;BME280;22245;52.832;13.816;2023-08-06T02:26:14;100541.81;;;17.77;88.53
17764;BME280;22245;52.832;13.816;2023-08-06T02:29:36;100532.22;;;17.74;89.00
17764;BME280;22245;52.832;13.816;2023-08-06T02:32:58;100527.22;;;17.71;89.05
17764;BME280;22245;52.832;13.816;2023-08-06T02:36:20;100527.41;;;17.70;88.94
17764;BME280;22245;52.832;13.816;2023-08-06T02:39:41;100521.53;;;17.66;89.27
17764;BME280;22245;52.832;13.816;2023-08-06T02:43:04;100526.66;;;17.61;89.69
17764;BME280;22245;52.832;13.816;2023-08-06T02:46:27;100518.28;;;17.56;88.79
17764;BME280;22245;52.832;13.816;2023-08-06T02:49:49;100511.41;;;17.53;88.72
17764;BME280;22245;52.832;13.816;2023-08-06T02:53:12;100509.91;;;17.50;89.36
17764;BME280;22245;52.832;13.816;2023-08-06T02:56:34;100509.44;;;17.47;89.75
17764;BME280;22245;52.832;13.816;2023-08-06T03:00:07;100510.66;;;17.44;90.03
17764;BME280;22245;52.832;13.816;2023-08-06T03:03:33;100512.22;;;17.39;90.58
17764;BME280;22245;52.832;13.816;2023-08-06T03:06:57;100510.91;;;17.34;90.73
17764;BME280;22245;52.832;13.816;2023-08-06T03:10:26;100507.72;;;17.31;90.70
17764;BME280;22245;52.832;13.816;2023-08-06T03:13:51;100511.44;;;17.30;90.91
17764;BME280;22245;52.832;13.816;2023-08-06T03:17:13;100509.97;;;17.27;90.90
17764;BME280;22245;52.832;13.816;2023-08-06T03:20:36;100502.91;;;17.26;90.60
17764;BME280;22245;52.832;13.816;2023-08-06T03:23:58;100515.03;;;17.22;90.95
17764;BME280;22245;52.832;13.816;2023-08-06T03:27:23;100506.50;;;17.18;90.35
17764;BME280;22245;52.832;13.816;2023-08-06T03:30:45;100497.09;;;17.14;91.00
17764;BME280;22245;52.832;13.816;2023-08-06T03:34:08;100487.38;;;17.13;91.08
17764;BME280;22245;52.832;13.816;2023-08-06T03:37:30;100475.28;;;17.09;90.80
17764;BME280;22245;52.832;13.816;2023-08-06T03:40:52;100472.78;;;17.07;90.94
17764;BME280;22245;52.832;13.816;2023-08-06T03:44:14;100462.19;;;17.06;91.33
17764;BME280;22245;52.832;13.816;2023-08-06T03:47:36;100460.34;;;17.06;90.61
17764;BME280;22245;52.832;13.816;2023-08-06T03:50:59;100460.69;;;17.03;90.72
17764;BME280;22245;52.832;13.816;2023-08-06T03:54:23;100451.13;;;17.01;92.01
17764;BME280;22245;52.832;13.816;2023-08-06T03:57:45;100446.75;;;17.00;91.69
17764;BME280;22245;52.832;13.816;2023-08-06T04:01:08;100443.41;;;16.98;92.66
17764;BME280;22245;52.832;13.816;2023-08-06T04:04:38;100445.25;;;16.97;92.92
17764;BME280;22245;52.832;13.816;2023-08-06T04:08:00;100437.34;;;16.96;93.04
17764;BME280;22245;52.832;13.816;2023-08-06T04:11:23;100435.69;;;16.95;93.60
17764;BME280;22245;52.832;13.816;2023-08-06T04:14:45;100426.59;;;16.96;93.21
17764;BME280;22245;52.832;13.816;2023-08-06T04:18:06;100423.91;;;16.96;93.14
17764;BME280;22245;52.832;13.816;2023-08-06T04:21:28;100422.44;;;16.93;93.01
17764;BME280;22245;52.832;13.816;2023-08-06T04:24:50;100417.03;;;16.93;93.44
17764;BME280;22245;52.832;13.816;2023-08-06T04:28:14;100413.50;;;16.92;93.84
17764;BME280;22245;52.832;13.816;2023-08-06T04:31:36;100406.47;;;16.91;93.40
17764;BME280;22245;52.832;13.816;2023-08-06T04:34:58;100406.47;;;16.91;93.63
17764;BME280;22245;52.832;13.816;2023-08-06T04:38:20;100411.00;;;16.91;93.78
17764;BME280;22245;52.832;13.816;2023-08-06T04:41:42;100400.91;;;16.93;94.38
17764;BME280;22245;52.832;13.816;2023-08-06T04:45:06;100386.81;;;16.91;94.54
17764;BME280;22245;52.832;13.816;2023-08-06T04:48:29;100387.81;;;16.90;93.93
17764;BME280;22245;52.832;13.816;2023-08-06T04:51:50;100387.63;;;16.91;94.29
17764;BME280;22245;52.832;13.816;2023-08-06T04:55:12;100384.56;;;16.95;94.74
17764;BME280;22245;52.832;13.816;2023-08-06T04:58:34;100381.88;;;16.95;94.86
17764;BME280;22245;52.832;13.816;2023-08-06T05:02:00;100393.50;;;16.95;94.94
17764;BME280;22245;52.832;13.816;2023-08-06T05:05:22;100390.59;;;16.97;94.50
17764;BME280;22245;52.832;13.816;2023-08-06T05:08:44;100380.03;;;16.95;93.80
17764;BME280;22245;52.832;13.816;2023-08-06T05:12:06;100380.69;;;16.97;94.03
17764;BME280;22245;52.832;13.816;2023-08-06T05:15:28;100386.06;;;16.97;94.43
17764;BME280;22245;52.832;13.816;2023-08-06T05:18:51;100371.97;;;16.95;94.95
17764;BME280;22245;52.832;13.816;2023-08-06T05:22:13;100372.78;;;16.96;94.49
17764;BME280;22245;52.832;13.816;2023-08-06T05:25:35;100369.28;;;16.95;93.56
17764;BME280;22245;52.832;13.816;2023-08-06T05:28:56;100365.41;;;16.98;93.50
17764;BME280;22245;52.832;13.816;2023-08-06T05:32:17;100358.31;;;16.97;94.04
17764;BME280;22245;52.832;13.816;2023-08-06T05:35:42;100354.47;;;16.99;93.90
17764;BME280;22245;52.832;13.816;2023-08-06T05:39:03;100351.59;;;17.01;93.80
17764;BME280;22245;52.832;13.816;2023-08-06T05:42:25;100347.22;;;17.00;94.05
17764;BME280;22245;52.832;13.816;2023-08-06T05:45:46;100340.66;;;17.02;93.60
17764;BME280;22245;52.832;13.816;2023-08-06T05:49:10;100336.47;;;17.00;93.68
17764;BME280;22245;52.832;13.816;2023-08-06T05:52:35;100336.47;;;17.00;93.74
17764;BME280;22245;52.832;13.816;2023-08-06T05:55:57;100338.50;;;16.98;93.24
17764;BME280;22245;52.832;13.816;2023-08-06T05:59:18;100340.19;;;16.99;92.96
17764;BME280;22245;52.832;13.816;2023-08-06T06:02:40;100332.97;;;16.99;92.98
17764;BME280;22245;52.832;13.816;2023-08-06T06:06:02;100328.22;;;17.01;94.00
17764;BME280;22245;52.832;13.816;2023-08-06T06:09:25;100327.00;;;17.04;93.92
17764;BME280;22245;52.832;13.816;2023-08-06T06:12:46;100322.66;;;17.03;91.77
17764;BME280;22245;52.832;13.816;2023-08-06T06:16:07;100322.84;;;17.01;92.65
17764;BME280;22245;52.832;13.816;2023-08-06T06:19:29;100319.13;;;17.02;93.17
17764;BME280;22245;52.832;13.816;2023-08-06T06:22:51;100310.88;;;17.04;92.93
17764;BME280;22245;52.832;13.816;2023-08-06T06:26:14;100315.41;;;17.03;93.63
17764;BME280;22245;52.832;13.816;2023-08-06T06:29:35;100311.72;;;17.04;93.51
17764;BME280;22245;52.832;13.816;2023-08-06T06:32:57;100305.78;;;17.09;94.00
17764;BME280;22245;52.832;13.816;2023-08-06T06:36:19;100294.00;;;17.10;93.82
17764;BME280;22245;52.832;13.816;2023-08-06T06:39:40;100290.47;;;17.10;94.56
17764;BME280;22245;52.832;13.816;2023-08-06T06:43:04;100301.06;;;17.11;95.80
17764;BME280;22245;52.832;13.816;2023-08-06T06:46:26;100296.31;;;17.13;93.95
17764;BME280;22245;52.832;13.816;2023-08-06T06:49:48;100295.31;;;17.14;93.96
17764;BME280;22245;52.832;13.816;2023-08-06T06:53:09;100303.00;;;17.17;94.31
17764;BME280;22245;52.832;13.816;2023-08-06T06:56:30;100299.47;;;17.17;94.47
17764;BME280;22245;52.832;13.816;2023-08-06T06:59:53;100292.03;;;17.19;94.64
17764;BME280;22245;52.832;13.816;2023-08-06T07:03:14;100296.03;;;17.23;94.84
17764;BME280;22245;52.832;13.816;2023-08-06T07:06:36;100298.53;;;17.25;95.11
17764;BME280;22245;52.832;13.816;2023-08-06T07:09:58;100298.38;;;17.26;95.53
17764;BME280;22245;52.832;13.816;2023-08-06T07:13:19;100294.47;;;17.29;94.97
17764;BME280;22245;52.832;13.816;2023-08-06T07:16:44;100295.94;;;17.31;94.78
17764;BME280;22245;52.832;13.816;2023-08-06T07:20:07;100297.25;;;17.35;94.56
17764;BME280;22245;52.832;13.816;2023-08-06T07:23:29;100297.41;;;17.34;95.00
17764;BME280;22245;52.832;13.816;2023-08-06T07:26:50;100296.41;;;17.35;94.10
17764;BME280;22245;52.832;13.816;2023-08-06T07:30:12;100300.09;;;17.34;93.92
17764;BME280;22245;52.832;13.816;2023-08-06T07:33:35;100294.66;;;17.27;93.81
17764;BME280;22245;52.832;13.816;2023-08-06T07:36:57;100295.69;;;17.26;94.32
17764;BME280;22245;52.832;13.816;2023-08-06T07:40:18;100284.72;;;17.28;94.63
17764;BME280;22245;52.832;13.816;2023-08-06T07:43:40;100276.84;;;17.26;95.41
17764;BME280;22245;52.832;13.816;2023-08-06T07:47:03;100278.50;;;17.27;96.23
17764;BME280;22245;52.832;13.816;2023-08-06T07:50:25;100287.03;;;17.31;95.92
17764;BME280;22245;52.832;13.816;2023-08-06T07:53:47;100287.28;;;17.36;96.90
17764;BME280;22245;52.832;13.816;2023-08-06T07:57:09;100288.25;;;17.43;96.49
17764;BME280;22245;52.832;13.816;2023-08-06T08:00:31;100272.91;;;17.44;95.62
17764;BME280;22245;52.832;13.816;2023-08-06T08:03:54;100279.16;;;17.44;96.25
17764;BME280;22245;52.832;13.816;2023-08-06T08:07:16;100269.03;;;17.46;96.30
17764;BME280;22245;52.832;13.816;2023-08-06T08:10:38;100267.63;;;17.50;95.57
17764;BME280;22245;52.832;13.816;2023-08-06T08:14:00;100269.09;;;17.53;94.46
17764;BME280;22245;52.832;13.816;2023-08-06T08:17:21;100264.72;;;17.52;94.20
17764;BME280;22245;52.832;13.816;2023-08-06T08:20:43;100257.66;;;17.51;95.32
17764;BME280;22245;52.832;13.816;2023-08-06T08:24:06;100256.84;;;17.50;95.75
17764;BME280;22245;52.832;13.816;2023-08-06T08:27:28;100243.56;;;17.49;94.23
17764;BME280;22245;52.832;13.816;2023-08-06T08:30:50;100239.59;;;17.45;94.97
17764;BME280;22245;52.832;13.816;2023-08-06T08:34:12;100236.91;;;17.45;95.55
17764;BME280;22245;52.832;13.816;2023-08-06T08:37:33;100227.78;;;17.46;94.75
17764;BME280;22245;52.832;13.816;2023-08-06T08:40:55;100228.63;;;17.46;94.53
17764;BME280;22245;52.832;13.816;2023-08-06T08:44:17;100229.03;;;17.43;96.37
17764;BME280;22245;52.832;13.816;2023-08-06T08:47:40;100221.59;;;17.45;95.92
17764;BME280;22245;52.832;13.816;2023-08-06T08:51:03;100217.41;;;17.43;95.94
17764;BME280;22245;52.832;13.816;2023-08-06T08:54:26;100212.78;;;17.36;96.90
17764;BME280;22245;52.832;13.816;2023-08-06T08:57:50;100219.38;;;17.34;96.56
17764;BME280;22245;52.832;13.816;2023-08-06T09:01:12;100211.03;;;17.29;96.42
17764;BME280;22245;52.832;13.816;2023-08-06T09:04:35;100207.69;;;17.27;98.11
17764;BME280;22245;52.832;13.816;2023-08-06T09:08:01;100201.75;;;17.31;97.91
17764;BME280;22245;52.832;13.816;2023-08-06T09:11:23;100202.19;;;17.35;97.75
17764;BME280;22245;52.832;13.816;2023-08-06T09:14:46;100197.91;;;17.41;97.97
17764;BME280;22245;52.832;13.816;2023-08-06T09:18:09;100199.66;;;17.48;99.32
17764;BME280;22245;52.832;13.816;2023-08-06T09:21:31;100198.53;;;17.58;98.18
17764;BME280;22245;52.832;13.816;2023-08-06T09:24:53;100197.75;;;17.64;96.85
17764;BME280;22245;52.832;13.816;2023-08-06T09:28:14;100191.16;;;17.67;96.53
17764;BME280;22245;52.832;13.816;2023-08-06T09:31:41;100190.78;;;17.70;96.35
17764;BME280;22245;52.832;13.816;2023-08-06T09:35:04;100185.00;;;17.73;96.32
17764;BME280;22245;52.832;13.816;2023-08-06T09:38:37;100181.47;;;17.72;95.68
17764;BME280;22245;52.832;13.816;2023-08-06T09:42:00;100178.38;;;17.75;94.68
17764;BME280;22245;52.832;13.816;2023-08-06T09:45:23;100173.84;;;17.76;95.04
17764;BME280;22245;52.832;13.816;2023-08-06T09:48:46;100173.28;;;17.81;96.15
17764;BME280;22245;52.832;13.816;2023-08-06T09:52:11;100170.38;;;17.82;93.94
17764;BME280;22245;52.832;13.816;2023-08-06T09:55:34;100169.28;;;17.76;90.71
17764;BME280;22245;52.832;13.816;2023-08-06T09:58:56;100151.44;;;17.75;92.55
17764;BME280;22245;52.832;13.816;2023-08-06T10:02:18;100151.41;;;17.69;93.68
17764;BME280;22245;52.832;13.816;2023-08-06T10:05:44;100151.59;;;17.67;94.16
17764;BME280;22245;52.832;13.816;2023-08-06T10:09:08;100140.19;;;17.65;93.25
17764;BME280;22245;52.832;13.816;2023-08-06T10:12:32;100143.25;;;17.62;93.67
17764;BME280;22245;52.832;13.816;2023-08-06T10:15:55;100140.94;;;17.59;93.38
17764;BME280;22245;52.832;13.816;2023-08-06T10:19:18;100137.63;;;17.57;92.90
17764;BME280;22245;52.832;13.816;2023-08-06T10:22:43;100139.28;;;17.58;93.06
17764;BME280;22245;52.832;13.816;2023-08-06T10:26:06;100129.97;;;17.60;94.30
17764;BME280;22245;52.832;13.816;2023-08-06T10:29:37;100133.34;;;17.62;95.05
17764;BME280;22245;52.832;13.816;2023-08-06T10:32:59;100126.97;;;17.70;94.71
17764;BME280;22245;52.832;13.816;2023-08-06T10:36:30;100122.69;;;17.76;94.44
17764;BME280;22245;52.832;13.816;2023-08-06T10:39:57;100122.84;;;17.74;94.62
17764;BME280;22245;52.832;13.816;2023-08-06T10:43:25;100121.66;;;17.77;94.72
17764;BME280;22245;52.832;13.816;2023-08-06T10:46:48;100121.00;;;17.75;95.38
17764;BME280;22245;52.832;13.816;2023-08-06T10:50:13;100109.00;;;17.77;95.10
17764;BME280;22245;52.832;13.816;2023-08-06T10:53:37;100110.31;;;17.82;94.22
17764;BME280;22245;52.832;13.816;2023-08-06T10:57:08;100107.00;;;17.86;94.32
17764;BME280;22245;52.832;13.816;2023-08-06T11:00:30;100103.03;;;17.82;93.45
17764;BME280;22245;52.832;13.816;2023-08-06T11:03:52;100096.31;;;17.71;93.49
17764;BME280;22245;52.832;13.816;2023-08-06T11:07:15;100097.56;;;17.69;94.09
17764;BME280;22245;52.832;13.816;2023-08-06T11:10:38;100084.66;;;17.64;94.95
17764;BME280;22245;52.832;13.816;2023-08-06T11:14:16;100091.53;;;17.67;95.02
17764;BME280;22245;52.832;13.816;2023-08-06T11:17:39;100089.47;;;17.69;96.05
17764;BME280;22245;52.832;13.816;2023-08-06T11:21:02;100076.66;;;17.71;95.10
17764;BME280;22245;52.832;13.816;2023-08-06T11:24:23;100074.78;;;17.71;96.53
17764;BME280;22245;52.832;13.816;2023-08-06T11:27:45;100067.34;;;17.73;95.44
17764;BME280;22245;52.832;13.816;2023-08-06T11:31:18;100064.63;;;17.73;96.02
17764;BME280;22245;52.832;13.816;2023-08-06T11:34:40;100066.31;;;17.74;94.95
17764;BME280;22245;52.832;13.816;2023-08-06T11:38:01;100064.00;;;17.71;95.32
17764;BME280;22245;52.832;13.816;2023-08-06T11:41:23;100052.41;;;17.71;96.13
17764;BME280;22245;52.832;13.816;2023-08-06T11:44:45;100055.28;;;17.69;94.47
17764;BME280;22245;52.832;13.816;2023-08-06T11:48:08;100045.13;;;17.64;95.80
17764;BME280;22245;52.832;13.816;2023-08-06T11:51:32;100044.13;;;17.72;96.36
17764;BME280;22245;52.832;13.816;2023-08-06T11:55:01;100039.59;;;17.73;95.04
17764;BME280;22245;52.832;13.816;2023-08-06T11:58:24;100041.88;;;17.76;95.39
17764;BME280;22245;52.832;13.816;2023-08-06T12:01:46;100036.28;;;17.77;95.33
17764;BME280;22245;52.832;13.816;2023-08-06T12:05:12;100034.78;;;17.68;95.79
17764;BME280;22245;52.832;13.816;2023-08-06T12:08:34;100041.56;;;17.64;94.78
17764;BME280;22245;52.832;13.816;2023-08-06T12:11:58;100034.53;;;17.63;96.19
17764;BME280;22245;52.832;13.816;2023-08-06T12:15:20;100027.66;;;17.60;94.08
17764;BME280;22245;52.832;13.816;2023-08-06T12:18:42;100034.91;;;17.60;93.84
17764;BME280;22245;52.832;13.816;2023-08-06T12:22:05;100044.22;;;17.57;94.13
17764;BME280;22245;52.832;13.816;2023-08-06T12:25:27;100030.97;;;17.56;94.33
17764;BME280;22245;52.832;13.816;2023-08-06T12:28:49;100026.59;;;17.55;91.31
17764;BME280;22245;52.832;13.816;2023-08-06T12:32:11;100027.41;;;17.55;92.46
17764;BME280;22245;52.832;13.816;2023-08-06T12:35:32;100028.44;;;17.54;92.75
17764;BME280;22245;52.832;13.816;2023-08-06T12:38:56;100027.03;;;17.58;93.16
17764;BME280;22245;52.832;13.816;2023-08-06T12:42:18;100029.16;;;17.63;94.38
17764;BME280;22245;52.832;13.816;2023-08-06T12:45:39;100028.75;;;17.66;93.79
17764;BME280;22245;52.832;13.816;2023-08-06T12:49:01;100028.75;;;17.66;87.29
17764;BME280;22245;52.832;13.816;2023-08-06T12:52:22;100028.31;;;17.62;85.52
17764;BME280;22245;52.832;13.816;2023-08-06T12:55:45;100029.16;;;17.63;85.93
17764;BME280;22245;52.832;13.816;2023-08-06T12:59:06;100030.16;;;17.62;85.81
17764;BME280;22245;52.832;13.816;2023-08-06T13:02:28;100028.31;;;17.62;86.02
17764;BME280;22245;52.832;13.816;2023-08-06T13:05:50;100022.28;;;17.60;85.88
17764;BME280;22245;52.832;13.816;2023-08-06T13:09:12;100020.19;;;17.56;84.46
17764;BME280;22245;52.832;13.816;2023-08-06T13:12:35;100019.31;;;17.48;84.97
17764;BME280;22245;52.832;13.816;2023-08-06T13:15:56;100022.97;;;17.41;85.70
17764;BME280;22245;52.832;13.816;2023-08-06T13:19:18;100016.47;;;17.35;86.75
17764;BME280;22245;52.832;13.816;2023-08-06T13:22:40;100024.94;;;17.32;88.87
17764;BME280;22245;52.832;13.816;2023-08-06T13:26:01;100019.13;;;17.28;89.66
17764;BME280;22245;52.832;13.816;2023-08-06T13:29:25;100021.44;;;17.31;90.82
17764;BME280;22245;52.832;13.816;2023-08-06T13:32:47;100023.88;;;17.26;91.23
17764;BME280;22245;52.832;13.816;2023-08-06T13:36:09;100018.69;;;17.25;92.05
17764;BME280;22245;52.832;13.816;2023-08-06T13:39:31;100018.03;;;17.23;91.73
17764;BME280;22245;52.832;13.816;2023-08-06T13:42:53;100011.16;;;17.20;92.29
17764;BME280;22245;52.832;13.816;2023-08-06T13:46:18;100011.38;;;17.18;93.62
17764;BME280;22245;52.832;13.816;2023-08-06T13:49:40;100008.69;;;17.18;93.57
17764;BME280;22245;52.832;13.816;2023-08-06T13:53:02;100008.94;;;17.24;93.29
17764;BME280;22245;52.832;13.816;2023-08-06T13:56:24;100007.09;;;17.24;94.27
17764;BME280;22245;52.832;13.816;2023-08-06T13:59:46;100010.34;;;17.19;92.93
17764;BME280;22245;52.832;13.816;2023-08-06T14:03:08;100012.19;;;17.19;92.19
17764;BME280;22245;52.832;13.816;2023-08-06T14:06:31;100005.28;;;17.10;92.56
17764;BME280;22245;52.832;13.816;2023-08-06T14:09:52;100008.38;;;17.06;92.58
17764;BME280;22245;52.832;13.816;2023-08-06T14:13:13;100012.25;;;17.04;94.05
17764;BME280;22245;52.832;13.816;2023-08-06T14:16:35;100008.75;;;17.03;92.80
17764;BME280;22245;52.832;13.816;2023-08-06T14:19:58;100014.94;;;17.04;93.25
17764;BME280;22245;52.832;13.816;2023-08-06T14:23:20;100015.16;;;17.02;92.90
17764;BME280;22245;52.832;13.816;2023-08-06T14:26:42;100023.78;;;16.98;93.15
17764;BME280;22245;52.832;13.816;2023-08-06T14:30:04;100022.09;;;16.97;93.59
17764;BME280;22245;52.832;13.816;2023-08-06T14:33:26;100018.41;;;16.98;91.69
17764;BME280;22245;52.832;13.816;2023-08-06T14:36:50;100018.75;;;16.95;93.87
17764;BME280;22245;52.832;13.816;2023-08-06T14:40:12;100023.13;;;16.96;92.20
17764;BME280;22245;52.832;13.816;2023-08-06T14:43:34;100026.47;;;16.98;92.92
17764;BME280;22245;52.832;13.816;2023-08-06T14:46:55;100020.25;;;16.97;92.23
17764;BME280;22245;52.832;13.816;2023-08-06T14:50:18;100021.09;;;16.98;93.19
17764;BME280;22245;52.832;13.816;2023-08-06T14:53:40;100029.34;;;16.96;90.44
17764;BME280;22245;52.832;13.816;2023-08-06T14:57:02;100010.66;;;16.88;91.16
17764;BME280;22245;52.832;13.816;2023-08-06T15:00:25;100020.94;;;16.84;90.54
17764;BME280;22245;52.832;13.816;2023-08-06T15:03:46;100020.69;;;16.79;90.19
17764;BME280;22245;52.832;13.816;2023-08-06T15:07:08;100027.50;;;16.82;89.73
17764;BME280;22245;52.832;13.816;2023-08-06T15:10:32;100026.06;;;16.79;89.04
17764;BME280;22245;52.832;13.816;2023-08-06T15:13:54;100025.16;;;16.72;88.93
17764;BME280;22245;52.832;13.816;2023-08-06T15:17:15;100025.53;;;16.69;89.97
17764;BME280;22245;52.832;13.816;2023-08-06T15:20:36;100016.34;;;16.63;89.06
17764;BME280;22245;52.832;13.816;2023-08-06T15:23:58;100014.97;;;16.52;90.52
17764;BME280;22245;52.832;13.816;2023-08-06T15:27:21;100024.44;;;16.48;91.42
17764;BME280;22245;52.832;13.816;2023-08-06T15:30:48;100023.81;;;16.46;91.35
17764;BME280;22245;52.832;13.816;2023-08-06T15:34:10;100030.19;;;16.45;91.15
17764;BME280;22245;52.832;13.816;2023-08-06T15:37:32;100021.66;;;16.41;89.81
17764;BME280;22245;52.832;13.816;2023-08-06T15:40:53;100022.25;;;16.37;88.13
17764;BME280;22245;52.832;13.816;2023-08-06T15:44:16;100028.38;;;16.30;86.53
17764;BME280;22245;52.832;13.816;2023-08-06T15:47:38;100026.88;;;16.28;86.40
17764;BME280;22245;52.832;13.816;2023-08-06T15:51:01;100023.53;;;16.26;87.03
17764;BME280;22245;52.832;13.816;2023-08-06T15:54:23;100021.22;;;16.23;87.14
17764;BME280;22245;52.832;13.816;2023-08-06T15:57:45;100020.59;;;16.20;88.78
17764;BME280;22245;52.832;13.816;2023-08-06T16:01:08;100016.41;;;16.18;88.62
17764;BME280;22245;52.832;13.816;2023-08-06T16:04:30;100020.97;;;16.17;87.76
17764;BME280;22245;52.832;13.816;2023-08-06T16:07:52;100023.38;;;16.12;89.31
17764;BME280;22245;52.832;13.816;2023-08-06T16:11:14;100018.00;;;16.12;90.06
17764;BME280;22245;52.832;13.816;2023-08-06T16:14:37;100016.97;;;16.13;89.49
17764;BME280;22245;52.832;13.816;2023-08-06T16:18:03;100020.84;;;16.11;90.02
17764;BME280;22245;52.832;13.816;2023-08-06T16:21:25;100021.72;;;16.11;91.02
17764;BME280;22245;52.832;13.816;2023-08-06T16:24:47;100012.63;;;16.12;92.37
17764;BME280;22245;52.832;13.816;2023-08-06T16:28:13;100010.13;;;16.11;90.57
17764;BME280;22245;52.832;13.816;2023-08-06T16:31:35;100008.19;;;16.04;91.63
17764;BME280;22245;52.832;13.816;2023-08-06T16:34:58;100009.56;;;16.00;91.67
17764;BME280;22245;52.832;13.816;2023-08-06T16:38:21;100009.56;;;16.00;92.14
17764;BME280;22245;52.832;13.816;2023-08-06T16:41:43;100000.66;;;16.00;92.61
17764;BME280;22245;52.832;13.816;2023-08-06T16:45:06;100009.94;;;15.97;89.85
17764;BME280;22245;52.832;13.816;2023-08-06T16:48:28;100007.25;;;15.97;90.61
17764;BME280;22245;52.832;13.816;2023-08-06T16:51:52;100002.25;;;15.94;89.22
17764;BME280;22245;52.832;13.816;2023-08-06T16:55:14;99998.72;;;15.94;89.45
17764;BME280;22245;52.832;13.816;2023-08-06T16:58:38;99997.25;;;15.91;89.50
17764;BME280;22245;52.832;13.816;2023-08-06T17:01:59;99995.88;;;15.95;89.86
17764;BME280;22245;52.832;13.816;2023-08-06T17:05:21;99993.19;;;15.95;89.14
17764;BME280;22245;52.832;13.816;2023-08-06T17:08:44;99994.19;;;15.94;89.86
17764;BME280;22245;52.832;13.816;2023-08-06T17:12:07;99991.69;;;15.93;89.55
17764;BME280;22245;52.832;13.816;2023-08-06T17:15:28;99994.56;;;15.91;89.32
17764;BME280;22245;52.832;13.816;2023-08-06T17:18:50;99994.56;;;15.91;90.02
17764;BME280;22245;52.832;13.816;2023-08-06T17:22:11;99994.38;;;15.93;90.75
17764;BME280;22245;52.832;13.816;2023-08-06T17:25:34;99997.91;;;15.93;90.64